Time;durP1;ratioP1;P1;durP2;ratioP2;P2;SDS_P1;SDS_P2;PMS_P1;PMS_P2;Temp;Humidity;BMP_temperature;BMP_pressure;BME280_temperature;BME280_humidity;BME280_pressure;Samples;Min_cycle;Max_cycle;Signal;HPM_P1;HPM_P2
2022/12/07 00:01:13;;;;;;;25.83;13.60;;;5.20;99.90;;;;;;5073457;28;20728;-47
2022/12/07 00:03:39;;;;;;;20.10;12.15;;;5.20;99.90;;;;;;5073726;28;20216;-48
2022/12/07 00:06:07;;;;;;;20.02;12.88;;;5.20;99.90;;;;;;5073379;28;20601;-49
2022/12/07 00:08:34;;;;;;;26.67;13.77;;;5.20;99.90;;;;;;5073678;28;20170;-50
2022/12/07 00:11:08;;;;;;;23.60;13.48;;;5.20;99.90;;;;;;5073595;28;20592;-53
2022/12/07 00:13:35;;;;;;;19.48;13.02;;;5.30;99.90;;;;;;5072626;28;20173;-50
2022/12/07 00:16:02;;;;;;;18.98;12.63;;;5.30;99.90;;;;;;5073208;28;20249;-48
2022/12/07 00:18:27;;;;;;;22.67;13.48;;;5.20;99.90;;;;;;5073249;28;20237;-50
2022/12/07 00:20:58;;;;;;;21.70;14.40;;;5.30;99.90;;;;;;5071943;28;20213;-48
2022/12/07 00:23:23;;;;;;;19.80;13.52;;;5.30;99.90;;;;;;5073122;28;20641;-46
2022/12/07 00:25:49;;;;;;;21.50;14.57;;;5.20;99.90;;;;;;5072996;28;20257;-50
2022/12/07 00:28:15;;;;;;;19.40;13.50;;;5.10;99.90;;;;;;5073438;28;20177;-52
2022/12/07 00:30:40;;;;;;;22.27;13.77;;;5.20;99.90;;;;;;5073257;28;20173;-46
2022/12/07 00:33:06;;;;;;;20.80;13.05;;;5.20;99.90;;;;;;5073511;28;20174;-48
2022/12/07 00:35:31;;;;;;;22.58;13.52;;;5.20;99.90;;;;;;5055020;28;20194;-48
2022/12/07 00:37:57;;;;;;;22.67;14.68;;;5.20;99.90;;;;;;5072980;28;20182;-47
2022/12/07 00:40:22;;;;;;;22.67;15.52;;;5.20;99.90;;;;;;5072894;28;20166;-48
2022/12/07 00:42:48;;;;;;;22.30;12.88;;;5.10;99.90;;;;;;5072881;28;20162;-49
2022/12/07 00:45:13;;;;;;;23.65;13.98;;;5.20;99.90;;;;;;5072964;28;20204;-47
2022/12/07 00:47:39;;;;;;;26.08;14.57;;;5.10;99.90;;;;;;5072653;28;20162;-49
2022/12/07 00:50:05;;;;;;;20.55;13.27;;;5.10;99.90;;;;;;5072647;28;20162;-48
2022/12/07 00:52:30;;;;;;;22.10;14.13;;;5.10;99.90;;;;;;5072636;28;20198;-51
2022/12/07 00:54:56;;;;;;;22.00;15.25;;;5.20;99.90;;;;;;5072497;28;20524;-50
2022/12/07 00:57:21;;;;;;;23.10;14.73;;;5.10;99.90;;;;;;5072518;28;20310;-48
2022/12/07 00:59:48;;;;;;;23.48;15.35;;;5.10;99.90;;;;;;5072363;28;20166;-47
2022/12/07 01:02:13;;;;;;;19.92;14.18;;;5.20;99.90;;;;;;5072585;28;20222;-48
2022/12/07 01:04:39;;;;;;;21.80;14.55;;;5.20;99.90;;;;;;5071936;28;20177;-46
2022/12/07 01:07:04;;;;;;;25.75;15.65;;;5.20;99.90;;;;;;5072219;28;20216;-49
2022/12/07 01:09:30;;;;;;;21.63;14.85;;;5.30;99.90;;;;;;5072309;28;20166;-47
2022/12/07 01:11:55;;;;;;;23.73;15.85;;;5.20;99.90;;;;;;5072139;28;20536;-46
2022/12/07 01:14:21;;;;;;;27.63;16.20;;;5.20;99.90;;;;;;5072161;28;20525;-46
2022/12/07 01:16:46;;;;;;;23.58;15.00;;;5.20;99.90;;;;;;5072517;28;20227;-47
2022/12/07 01:19:12;;;;;;;25.52;15.85;;;5.30;99.90;;;;;;5072047;28;20173;-46
2022/12/07 01:21:38;;;;;;;22.98;15.18;;;5.20;99.90;;;;;;5071997;28;20166;-46
2022/12/07 01:24:06;;;;;;;23.05;15.63;;;5.30;99.90;;;;;;5072026;28;20170;-46
2022/12/07 01:26:32;;;;;;;22.38;16.23;;;5.30;99.90;;;;;;5071882;28;20280;-47
2022/12/07 01:28:58;;;;;;;22.85;14.45;;;5.30;99.90;;;;;;5054100;28;20170;-47
2022/12/07 01:31:26;;;;;;;27.27;15.93;;;5.30;99.90;;;;;;5071880;28;20181;-47
2022/12/07 01:33:57;;;;;;;36.42;18.85;;;5.20;99.90;;;;;;5071958;28;20566;-50
2022/12/07 01:36:29;;;;;;;24.38;16.85;;;5.30;99.90;;;;;;5071912;28;20197;-46
2022/12/07 01:39:00;;;;;;;35.45;18.70;;;5.30;99.90;;;;;;5071901;28;20169;-46
2022/12/07 01:41:28;;;;;;;31.95;15.10;;;5.30;99.90;;;;;;5071883;28;20166;-46
2022/12/07 01:44:17;;;;;;;26.27;15.57;;;5.20;99.90;;;;;;5071777;28;20638;-46
2022/12/07 01:46:55;;;;;;;27.70;16.63;;;5.30;99.90;;;;;;5072324;28;20206;-46
2022/12/07 01:49:43;;;;;;;23.92;16.40;;;5.30;99.90;;;;;;5072028;28;20166;-46
2022/12/07 01:52:11;;;;;;;29.02;17.67;;;5.40;99.90;;;;;;5071771;28;20715;-46
2022/12/07 01:54:37;;;;;;;44.83;24.50;;;5.30;99.90;;;;;;5053698;28;20646;-46
2022/12/07 01:57:04;;;;;;;48.40;24.80;;;5.40;99.90;;;;;;5071682;28;20200;-46
2022/12/07 01:59:30;;;;;;;35.25;21.05;;;5.30;99.90;;;;;;5071759;28;20196;-46
2022/12/07 02:01:56;;;;;;;39.33;23.13;;;5.40;99.90;;;;;;5071523;28;20245;-46
2022/12/07 02:04:22;;;;;;;31.75;18.60;;;5.30;99.90;;;;;;5071917;28;20181;-46
2022/12/07 02:06:49;;;;;;;23.70;15.68;;;5.30;99.90;;;;;;5071457;28;20205;-46
2022/12/07 02:09:15;;;;;;;24.42;14.82;;;5.30;99.90;;;;;;5072232;28;20582;-47
2022/12/07 02:11:41;;;;;;;27.75;17.33;;;5.30;99.90;;;;;;5071743;28;20209;-46
2022/12/07 02:14:06;;;;;;;27.65;17.27;;;5.30;99.90;;;;;;5071575;28;20626;-47
2022/12/07 02:17:02;;;;;;;26.13;17.05;;;5.20;99.90;;;;;;5071562;28;20169;-47
2022/12/07 02:20:12;;;;;;;27.85;16.50;;;5.20;99.90;;;;;;5071577;28;20201;-46
2022/12/07 02:22:43;;;;;;;23.95;16.65;;;5.30;99.90;;;;;;5071407;28;20170;-46
2022/12/07 02:25:33;;;;;;;29.38;15.90;;;5.30;99.90;;;;;;5071676;28;20240;-46
2022/12/07 02:28:12;;;;;;;24.95;15.02;;;5.30;99.90;;;;;;5071469;28;20166;-46
2022/12/07 02:30:44;;;;;;;27.23;17.42;;;5.20;99.90;;;;;;5071329;28;20170;-46
2022/12/07 02:33:18;;;;;;;28.52;16.33;;;5.20;99.90;;;;;;5071351;28;20272;-46
2022/12/07 02:35:48;;;;;;;24.13;16.55;;;5.20;99.90;;;;;;5071736;28;20169;-46
2022/12/07 02:38:20;;;;;;;26.75;16.52;;;5.20;99.90;;;;;;5053683;28;20657;-46
2022/12/07 02:41:02;;;;;;;27.15;17.70;;;5.20;99.90;;;;;;5053717;28;20166;-46
2022/12/07 02:43:35;;;;;;;26.48;16.77;;;5.30;99.90;;;;;;5072574;28;20173;-46
2022/12/07 02:46:14;;;;;;;27.63;17.95;;;5.20;99.90;;;;;;5075133;28;20210;-46
2022/12/07 02:48:42;;;;;;;28.08;18.25;;;5.10;99.90;;;;;;5075035;28;20312;-46
2022/12/07 02:51:08;;;;;;;23.67;17.48;;;5.20;99.90;;;;;;5074845;28;20629;-46
2022/12/07 02:53:37;;;;;;;28.65;18.40;;;5.20;99.90;;;;;;5074795;28;20170;-46
2022/12/07 02:56:18;;;;;;;29.48;18.00;;;5.20;99.90;;;;;;5074755;28;20168;-52
2022/12/07 02:58:52;;;;;;;30.77;18.20;;;5.20;99.90;;;;;;5075262;28;20573;-48
2022/12/07 03:01:44;;;;;;;34.67;18.35;;;5.10;99.90;;;;;;5074456;28;20221;-50
2022/12/07 03:04:47;;;;;;;21.25;14.77;;;5.20;99.90;;;;;;5036574;28;20539;-47
2022/12/07 03:07:35;;;;;;;31.15;19.55;;;5.10;99.90;;;;;;5074825;28;20256;-47
2022/12/07 03:10:10;;;;;;;29.35;18.90;;;5.20;99.90;;;;;;5074510;28;20560;-46
2022/12/07 03:13:02;;;;;;;24.92;16.70;;;5.20;99.90;;;;;;5074387;28;20173;-46
2022/12/07 03:15:28;;;;;;;26.85;18.05;;;5.10;99.90;;;;;;5074526;28;20215;-46
2022/12/07 03:17:56;;;;;;;29.48;17.23;;;5.20;99.90;;;;;;5074549;28;20170;-46
2022/12/07 03:20:24;;;;;;;31.00;17.95;;;5.20;99.90;;;;;;5074261;28;20170;-46
2022/12/07 03:22:52;;;;;;;29.35;17.25;;;5.10;99.90;;;;;;5074289;28;20625;-46
2022/12/07 03:25:18;;;;;;;35.75;18.77;;;5.20;99.90;;;;;;5074134;28;20646;-47
2022/12/07 03:27:46;;;;;;;31.63;18.88;;;5.10;99.90;;;;;;5074534;28;20177;-46
2022/12/07 03:30:19;;;;;;;25.40;16.33;;;4.10;99.90;;;;;;5074626;28;20162;-46
2022/12/07 03:33:06;;;;;;;26.63;15.95;;;5.20;99.90;;;;;;5074457;28;20192;-46
2022/12/07 03:35:43;;;;;;;28.30;17.88;;;5.20;99.90;;;;;;5074007;28;20165;-47
2022/12/07 03:38:22;;;;;;;28.38;17.92;;;5.20;99.90;;;;;;5073995;28;20679;-46
2022/12/07 03:40:52;;;;;;;29.25;18.55;;;5.20;99.90;;;;;;5074184;28;20231;-46
2022/12/07 03:43:19;;;;;;;30.02;17.73;;;5.30;99.90;;;;;;5074113;28;20170;-46
2022/12/07 03:46:00;;;;;;;25.58;15.30;;;5.10;99.90;;;;;;5074157;28;20219;-45
2022/12/07 03:48:42;;;;;;;33.15;19.38;;;5.20;99.90;;;;;;5073837;28;20158;-46
2022/12/07 03:51:18;;;;;;;30.13;19.13;;;5.10;99.90;;;;;;5073856;28;20173;-46
2022/12/07 03:53:50;;;;;;;35.30;18.58;;;5.20;99.90;;;;;;5073767;28;20223;-46
2022/12/07 03:56:17;;;;;;;34.58;20.65;;;5.20;99.90;;;;;;5074077;28;20166;-49
2022/12/07 03:58:43;;;;;;;22.08;13.65;;;5.20;99.90;;;;;;5073966;28;20648;-46
2022/12/07 04:01:09;;;;;;;27.40;19.35;;;5.10;99.90;;;;;;5073495;28;20237;-46
2022/12/07 04:03:34;;;;;;;31.48;17.67;;;5.10;99.90;;;;;;5073581;28;20625;-46
2022/12/07 04:06:00;;;;;;;34.05;20.20;;;5.10;99.90;;;;;;5073457;28;20237;-48
2022/12/07 04:08:26;;;;;;;29.88;17.73;;;5.20;99.90;;;;;;5073764;28;20173;-46
2022/12/07 04:10:52;;;;;;;31.58;19.15;;;5.10;99.90;;;;;;5073493;28;20524;-46
2022/12/07 04:13:17;;;;;;;30.75;18.60;;;5.10;99.90;;;;;;5064508;28;20183;-46
2022/12/07 04:15:43;;;;;;;33.55;18.13;;;5.20;99.90;;;;;;5053572;28;20318;-46
2022/12/07 04:18:08;;;;;;;30.33;20.10;;;5.10;99.90;;;;;;5053250;28;20163;-47
2022/12/07 04:20:34;;;;;;;30.70;18.02;;;5.10;99.90;;;;;;5053206;28;20175;-46
2022/12/07 04:22:59;;;;;;;30.17;17.77;;;5.20;99.90;;;;;;5053396;28;20250;-46
2022/12/07 04:25:25;;;;;;;32.90;19.25;;;5.20;99.90;;;;;;5053096;28;20551;-46
2022/12/07 04:27:50;;;;;;;29.73;18.65;;;5.10;99.90;;;;;;5053070;28;20170;-48
2022/12/07 04:30:16;;;;;;;33.72;18.58;;;5.10;99.90;;;;;;5053474;28;20216;-46
2022/12/07 04:32:42;;;;;;;27.85;18.45;;;5.10;99.90;;;;;;5053522;28;20688;-46
2022/12/07 04:35:08;;;;;;;29.55;18.02;;;5.10;99.90;;;;;;5052914;28;20171;-46
2022/12/07 04:37:33;;;;;;;26.77;18.02;;;5.00;99.90;;;;;;5052918;28;20266;-46
2022/12/07 04:39:59;;;;;;;31.20;17.83;;;5.00;99.90;;;;;;5053106;28;20264;-47
2022/12/07 04:42:25;;;;;;;26.48;17.83;;;4.90;99.90;;;;;;5052889;28;20185;-49
2022/12/07 04:44:50;;;;;;;27.75;18.55;;;5.00;99.90;;;;;;5052719;28;20178;-46
2022/12/07 04:47:16;;;;;;;29.98;17.25;;;5.00;99.90;;;;;;5052881;28;20260;-46
2022/12/07 04:49:42;;;;;;;29.67;17.80;;;4.90;99.90;;;;;;5053039;28;20170;-46
2022/12/07 04:52:07;;;;;;;25.15;17.45;;;4.90;99.90;;;;;;5052663;28;20245;-46
2022/12/07 04:54:33;;;;;;;29.60;17.83;;;4.90;99.90;;;;;;5052636;28;20618;-47
2022/12/07 04:56:59;;;;;;;28.55;18.77;;;5.00;99.90;;;;;;5052563;28;20162;-46
2022/12/07 04:59:24;;;;;;;28.42;17.90;;;4.90;99.90;;;;;;5052438;28;20205;-46
2022/12/07 05:01:50;;;;;;;26.42;17.55;;;5.00;99.90;;;;;;5052272;28;20334;-47
2022/12/07 05:04:15;;;;;;;26.52;17.20;;;4.90;99.90;;;;;;5053087;28;20198;-46
2022/12/07 05:06:41;;;;;;;26.52;16.70;;;4.90;99.90;;;;;;5052273;28;20289;-46
2022/12/07 05:09:07;;;;;;;28.38;17.42;;;4.90;99.90;;;;;;5052315;28;20159;-46
2022/12/07 05:11:39;;;;;;;27.38;15.98;;;4.90;99.90;;;;;;5052304;28;20250;-46
2022/12/07 05:14:18;;;;;;;34.50;18.58;;;4.80;99.90;;;;;;5052453;28;20254;-47
2022/12/07 05:16:45;;;;;;;30.00;16.10;;;4.90;99.90;;;;;;5052545;28;20216;-46
2022/12/07 05:19:12;;;;;;;26.40;17.45;;;5.00;99.90;;;;;;5052496;28;20193;-46
2022/12/07 05:21:38;;;;;;;29.20;16.45;;;4.90;99.90;;;;;;5052338;28;20202;-46
2022/12/07 05:24:04;;;;;;;27.45;16.40;;;4.90;99.90;;;;;;5034113;28;20260;-47
2022/12/07 05:26:30;;;;;;;25.52;17.02;;;5.00;99.90;;;;;;5051891;28;20214;-47
2022/12/07 05:28:56;;;;;;;25.08;16.50;;;4.90;99.90;;;;;;5051975;28;20284;-46
2022/12/07 05:31:24;;;;;;;23.75;15.40;;;5.00;99.90;;;;;;5052170;28;20171;-46
2022/12/07 05:33:50;;;;;;;34.97;17.50;;;4.90;99.90;;;;;;5052065;28;20162;-46
2022/12/07 05:36:15;;;;;;;29.45;17.15;;;4.90;99.90;;;;;;5052144;28;20529;-46
2022/12/07 05:38:41;;;;;;;25.90;15.15;;;4.90;99.90;;;;;;5052488;28;20178;-47
2022/12/07 05:42:11;;;;;;;29.55;16.80;;;5.00;99.90;;;;;;5052000;28;20167;-47
2022/12/07 05:43:56;;;;;;;26.73;15.82;;;4.90;99.90;;;;;;5051595;28;20253;-47
2022/12/07 05:46:21;;;;;;;30.33;18.13;;;4.90;99.90;;;;;;5051787;28;20220;-47
2022/12/07 05:48:47;;;;;;;29.50;17.15;;;4.80;99.90;;;;;;5051708;28;20163;-46
2022/12/07 05:51:12;;;;;;;28.80;17.55;;;4.90;99.90;;;;;;5052016;28;20199;-46
2022/12/07 05:53:38;;;;;;;25.50;15.63;;;4.90;99.90;;;;;;5033976;28;20171;-48
2022/12/07 05:56:04;;;;;;;29.10;17.35;;;4.90;99.90;;;;;;5051597;28;20175;-47
2022/12/07 06:01:13;;;;;;;26.50;17.13;;;4.80;99.90;;;;;;5051869;28;20217;-48
2022/12/07 06:03:39;;;;;;;27.30;17.35;;;4.70;99.90;;;;;;5051588;28;20170;-50
2022/12/07 06:06:05;;;;;;;27.67;16.75;;;4.70;99.90;;;;;;5051371;28;20228;-49
2022/12/07 06:08:30;;;;;;;33.10;20.17;;;4.70;99.90;;;;;;5051545;28;20265;-47
2022/12/07 06:13:40;;;;;;;34.95;20.17;;;4.80;99.90;;;;;;5051752;28;20703;-46
2022/12/07 06:16:06;;;;;;;30.42;20.38;;;4.70;99.90;;;;;;5051384;28;20170;-48
2022/12/07 06:18:31;;;;;;;33.40;20.27;;;4.70;99.90;;;;;;5054735;28;20159;-46
2022/12/07 06:20:57;;;;;;;32.45;18.52;;;4.80;99.90;;;;;;5055516;28;20537;-47
2022/12/07 06:23:22;;;;;;;36.33;19.10;;;4.80;99.90;;;;;;5055424;28;20177;-46
2022/12/07 06:25:48;;;;;;;31.88;19.73;;;4.80;99.90;;;;;;5055327;28;20228;-46
2022/12/07 06:28:13;;;;;;;27.83;19.63;;;4.80;99.90;;;;;;5055664;28;20585;-46
2022/12/07 06:30:39;;;;;;;28.83;19.95;;;4.70;99.90;;;;;;5055378;28;20236;-46
2022/12/07 06:33:04;;;;;;;32.47;18.67;;;4.80;99.90;;;;;;5055305;28;20194;-46
2022/12/07 06:35:32;;;;;;;25.38;16.55;;;4.80;99.90;;;;;;5055284;28;20163;-46
2022/12/07 06:37:58;;;;;;;33.03;19.58;;;4.80;99.90;;;;;;5055238;28;20205;-46
2022/12/07 06:40:23;;;;;;;31.25;18.60;;;4.80;99.90;;;;;;5055098;28;20190;-46
2022/12/07 06:42:49;;;;;;;28.73;18.50;;;4.80;99.90;;;;;;5055359;28;20181;-46
2022/12/07 06:45:14;;;;;;;29.98;19.42;;;4.70;99.90;;;;;;5055263;28;20695;-50
2022/12/07 06:47:40;;;;;;;32.72;19.70;;;4.90;99.90;;;;;;5037150;28;20171;-46
2022/12/07 06:50:07;;;;;;;34.67;20.98;;;4.90;99.90;;;;;;5054910;28;20207;-47
2022/12/07 06:52:33;;;;;;;35.33;19.88;;;4.80;99.90;;;;;;5054763;28;20642;-47
2022/12/07 06:54:59;;;;;;;34.83;19.95;;;4.80;99.90;;;;;;5054532;28;20174;-46
2022/12/07 06:57:25;;;;;;;26.65;17.98;;;4.80;99.90;;;;;;5054646;28;20163;-46
2022/12/07 06:59:50;;;;;;;34.75;20.40;;;4.90;99.90;;;;;;5036875;28;20177;-46
2022/12/07 07:02:16;;;;;;;33.38;21.63;;;4.80;99.90;;;;;;5036652;28;20225;-47
2022/12/07 07:04:42;;;;;;;28.63;18.48;;;4.90;99.90;;;;;;5055221;28;20530;-46
2022/12/07 07:07:08;;;;;;;27.30;19.63;;;4.80;99.90;;;;;;5054585;28;20206;-46
2022/12/07 07:09:33;;;;;;;31.63;19.70;;;4.80;99.90;;;;;;5054497;28;20198;-46
2022/12/07 07:11:59;;;;;;;29.33;19.10;;;4.90;99.90;;;;;;5054538;28;20170;-48
2022/12/07 07:14:24;;;;;;;29.95;18.02;;;4.70;99.90;;;;;;5054485;28;20619;-46
2022/12/07 07:16:50;;;;;;;34.80;18.27;;;4.80;99.90;;;;;;5053844;28;20275;-45
2022/12/07 07:19:15;;;;;;;31.95;18.92;;;4.70;99.90;;;;;;5054634;28;20169;-47
2022/12/07 07:21:41;;;;;;;29.13;19.08;;;4.80;99.90;;;;;;5054652;28;20717;-46
2022/12/07 07:24:07;;;;;;;29.73;18.15;;;4.70;99.90;;;;;;5054238;28;20168;-49
2022/12/07 07:26:32;;;;;;;26.05;18.17;;;4.80;99.90;;;;;;5054205;28;20205;-48
2022/12/07 07:28:58;;;;;;;27.38;16.85;;;4.70;99.90;;;;;;5053538;28;20167;-51
2022/12/07 07:31:23;;;;;;;28.90;17.73;;;4.70;99.90;;;;;;5054184;28;20177;-51
2022/12/07 07:33:49;;;;;;;28.20;18.38;;;4.60;99.90;;;;;;5054099;28;20166;-51
2022/12/07 07:36:14;;;;;;;33.30;18.30;;;4.60;99.90;;;;;;5054412;28;20166;-50
2022/12/07 07:38:40;;;;;;;31.60;19.15;;;4.60;99.90;;;;;;5053912;28;20198;-50
2022/12/07 07:41:06;;;;;;;29.48;18.40;;;4.60;99.90;;;;;;5054089;28;20189;-46
2022/12/07 07:43:32;;;;;;;27.08;17.92;;;4.60;99.90;;;;;;5053861;28;20177;-51
2022/12/07 07:45:57;;;;;;;27.20;17.98;;;4.70;99.90;;;;;;5053275;28;20206;-50
2022/12/07 07:48:25;;;;;;;26.10;16.33;;;4.60;99.90;;;;;;5053668;28;20737;-48
2022/12/07 07:50:50;;;;;;;26.75;16.00;;;4.70;99.90;;;;;;5054002;28;20261;-52
2022/12/07 07:53:16;;;;;;;25.33;15.05;;;4.70;99.90;;;;;;5053669;28;20241;-53
2022/12/07 07:55:49;;;;;;;25.85;16.52;;;4.60;99.90;;;;;;5053826;28;20546;-46
2022/12/07 07:58:16;;;;;;;22.27;15.77;;;4.60;99.90;;;;;;5054001;28;20170;-45
2022/12/07 08:00:41;;;;;;;23.42;16.13;;;4.60;99.90;;;;;;5053580;28;20155;-49
2022/12/07 08:03:07;;;;;;;25.73;17.02;;;4.80;99.90;;;;;;5053624;28;20185;-50
2022/12/07 08:05:32;;;;;;;23.70;17.23;;;4.80;99.90;;;;;;5052729;28;20281;-50
2022/12/07 08:07:58;;;;;;;22.60;15.55;;;4.80;99.90;;;;;;5053459;28;20175;-52
2022/12/07 08:10:23;;;;;;;24.92;16.80;;;4.80;99.90;;;;;;5053744;28;20630;-50
2022/12/07 08:15:33;;;;;;;22.38;16.63;;;4.90;99.90;;;;;;5053128;28;20265;-47
2022/12/07 08:17:59;;;;;;;24.98;15.55;;;4.80;99.90;;;;;;5053323;28;20246;-46
2022/12/07 08:20:25;;;;;;;25.70;15.30;;;4.90;99.90;;;;;;5061967;28;20184;-51
2022/12/07 08:22:50;;;;;;;25.48;15.43;;;4.80;99.90;;;;;;5071647;28;20170;-56
2022/12/07 08:25:16;;;;;;;25.92;15.13;;;4.80;99.90;;;;;;5071313;28;20173;-48
2022/12/07 08:27:42;;;;;;;23.05;15.35;;;4.90;99.90;;;;;;5072126;28;20174;-46
2022/12/07 08:30:08;;;;;;;25.20;16.08;;;4.90;99.90;;;;;;5071537;28;20609;-49
2022/12/07 08:32:33;;;;;;;26.98;15.98;;;4.90;99.90;;;;;;5071458;28;20506;-45
2022/12/07 08:34:59;;;;;;;24.23;16.83;;;5.00;99.90;;;;;;5071400;28;20166;-46
2022/12/07 08:37:24;;;;;;;23.88;16.25;;;4.90;99.90;;;;;;5071154;28;20163;-45
2022/12/07 08:39:50;;;;;;;25.85;15.93;;;5.00;99.90;;;;;;5071031;28;20175;-46
2022/12/07 08:42:15;;;;;;;25.23;16.50;;;4.90;99.90;;;;;;5070361;28;20162;-44
2022/12/07 08:44:41;;;;;;;26.00;17.67;;;4.90;99.90;;;;;;5071654;28;20257;-47
2022/12/07 08:47:07;;;;;;;25.60;16.25;;;5.00;99.90;;;;;;5070941;28;20288;-54
2022/12/07 08:49:38;;;;;;;32.70;17.02;;;5.00;99.90;;;;;;5071136;28;20167;-54
2022/12/07 08:52:05;;;;;;;24.17;14.55;;;5.10;99.90;;;;;;5071110;28;20194;-53
2022/12/07 08:54:34;;;;;;;23.70;14.63;;;5.00;99.90;;;;;;5070990;28;20162;-50
2022/12/07 08:56:59;;;;;;;29.75;16.48;;;5.10;99.90;;;;;;5071058;28;20170;-53
2022/12/07 08:59:26;;;;;;;23.88;13.82;;;5.20;99.90;;;;;;5070723;28;20218;-52
2022/12/07 09:02:03;;;;;;;23.27;15.57;;;5.10;99.90;;;;;;5067449;28;20609;-50
2022/12/07 09:04:29;;;;;;;24.05;16.50;;;5.10;99.90;;;;;;5067336;28;20178;-51
2022/12/07 09:06:55;;;;;;;24.73;15.48;;;5.20;99.90;;;;;;5067663;28;20173;-44
2022/12/07 09:09:21;;;;;;;21.10;14.88;;;5.30;99.90;;;;;;5067257;28;20253;-51
2022/12/07 09:11:47;;;;;;;24.00;14.25;;;5.20;99.90;;;;;;5067386;28;20250;-52
2022/12/07 09:14:13;;;;;;;28.27;16.33;;;5.20;99.90;;;;;;5067568;28;20170;-50
2022/12/07 09:16:39;;;;;;;24.48;15.55;;;5.30;99.90;;;;;;5067270;28;20166;-52
2022/12/07 09:19:04;;;;;;;24.73;13.88;;;5.40;99.90;;;;;;5067012;28;20181;-49
2022/12/07 09:21:30;;;;;;;21.80;14.25;;;5.30;99.90;;;;;;5067055;28;20201;-44
2022/12/07 09:23:55;;;;;;;22.20;13.40;;;5.30;99.90;;;;;;5065900;28;20239;-52
2022/12/07 09:26:21;;;;;;;21.00;13.82;;;5.50;99.90;;;;;;5066888;28;20174;-51
2022/12/07 09:28:47;;;;;;;21.75;14.35;;;5.40;99.90;;;;;;5066861;28;20170;-48
2022/12/07 09:31:12;;;;;;;30.02;14.52;;;5.50;99.90;;;;;;5066992;28;20296;-49
2022/12/07 09:33:38;;;;;;;21.17;13.73;;;5.50;99.90;;;;;;5066787;28;20216;-52
2022/12/07 09:36:04;;;;;;;20.08;13.05;;;5.40;99.90;;;;;;5066701;28;20202;-52
2022/12/07 09:38:31;;;;;;;20.70;13.52;;;5.60;99.90;;;;;;5067039;28;20178;-45
2022/12/07 09:40:57;;;;;;;24.00;13.43;;;5.60;99.90;;;;;;5066861;28;20210;-52
2022/12/07 09:43:24;;;;;;;20.60;12.13;;;5.60;99.90;;;;;;5066372;28;20173;-43
2022/12/07 09:45:53;;;;;;;21.15;12.68;;;5.60;99.90;;;;;;5066604;28;20173;-47
2022/12/07 09:48:23;;;;;;;22.95;12.10;;;5.70;99.90;;;;;;5066591;28;20253;-44
2022/12/07 09:50:50;;;;;;;18.30;12.25;;;5.70;99.90;;;;;;5066479;28;20170;-44
2022/12/07 09:53:29;;;;;;;23.85;13.73;;;5.70;99.90;;;;;;5066400;28;20170;-44
2022/12/07 09:55:55;;;;;;;21.05;12.23;;;5.90;99.90;;;;;;5066346;28;20656;-43
2022/12/07 09:58:26;;;;;;;20.02;12.45;;;5.80;99.90;;;;;;5066294;28;20163;-46
2022/12/07 10:00:57;;;;;;;19.98;12.18;;;5.90;99.90;;;;;;5066160;28;20256;-44
2022/12/07 10:03:22;;;;;;;21.17;11.73;;;5.90;99.90;;;;;;5066073;28;20245;-44
2022/12/07 10:05:51;;;;;;;20.27;10.77;;;5.90;99.90;;;;;;5066187;28;20698;-44
2022/12/07 10:08:17;;;;;;;23.90;13.68;;;5.90;99.90;;;;;;5064934;28;20170;-48
2022/12/07 10:10:43;;;;;;;19.00;11.98;;;5.90;99.90;;;;;;5066418;28;20167;-48
2022/12/07 10:13:21;;;;;;;19.42;12.50;;;6.30;99.90;;;;;;5053887;28;20573;-44
2022/12/07 10:15:58;;;;;;;23.85;12.63;;;6.00;99.90;;;;;;5051672;28;20634;-43
2022/12/07 10:18:29;;;;;;;19.92;10.75;;;6.00;99.90;;;;;;5052822;28;20167;-46
2022/12/07 10:21:20;;;;;;;15.88;10.20;;;6.00;99.90;;;;;;5052898;28;20210;-50
2022/12/07 10:24:04;;;;;;;16.77;9.52;;;6.00;99.90;;;;;;5052476;28;20692;-51
2022/12/07 10:26:50;;;;;;;17.23;8.93;;;6.10;99.90;;;;;;5052367;28;20616;-45
2022/12/07 10:29:28;;;;;;;16.60;9.40;;;6.00;99.90;;;;;;5052272;28;20544;-44
2022/12/07 10:32:22;;;;;;;14.40;10.25;;;6.20;99.90;;;;;;5052236;28;20638;-48
2022/12/07 10:34:47;;;;;;;15.50;9.07;;;6.30;99.90;;;;;;5052222;28;20175;-47
2022/12/07 10:37:15;;;;;;;16.75;8.27;;;6.30;99.90;;;;;;5052819;28;20653;-44
2022/12/07 10:39:47;;;;;;;17.23;7.13;;;6.40;99.90;;;;;;5050879;28;20735;-49
2022/12/07 10:42:17;;;;;;;19.98;8.27;;;6.50;99.90;;;;;;5052500;28;20646;-43
2022/12/07 10:44:43;;;;;;;15.68;6.88;;;6.50;99.90;;;;;;5052680;28;20181;-46
2022/12/07 10:47:35;;;;;;;18.70;9.32;;;6.50;99.90;;;;;;5050351;28;20179;-46
2022/12/07 10:50:38;;;;;;;19.05;8.27;;;6.50;99.90;;;;;;5051082;28;20175;-46
2022/12/07 10:53:10;;;;;;;15.18;7.88;;;6.60;99.90;;;;;;5052138;28;20171;-47
2022/12/07 10:55:53;;;;;;;16.42;7.97;;;6.70;99.90;;;;;;5051931;28;20216;-48
2022/12/07 10:59:06;;;;;;;15.13;8.90;;;6.70;99.90;;;;;;5052097;28;20202;-45
2022/12/07 11:01:51;;;;;;;11.77;7.53;;;6.80;99.90;;;;;;5034570;28;20726;-55
2022/12/07 11:04:58;;;;;;;15.57;7.65;;;6.70;99.90;;;;;;5051807;28;20623;-48
2022/12/07 11:07:45;;;;;;;11.05;7.55;;;6.80;99.90;;;;;;5029412;28;20543;-42
2022/12/07 11:10:20;;;;;;;15.98;8.20;;;6.80;99.90;;;;;;5051680;28;20186;-49
2022/12/07 11:13:09;;;;;;;13.15;7.53;;;7.00;99.90;;;;;;5051925;28;20249;-52
2022/12/07 11:15:48;;;;;;;16.02;6.05;;;7.10;99.90;;;;;;5051406;28;20166;-45
2022/12/07 11:18:41;;;;;;;12.95;7.53;;;7.10;99.90;;;;;;5050544;28;20314;-44
2022/12/07 11:21:23;;;;;;;16.17;7.63;;;7.10;99.90;;;;;;5051199;28;20202;-46
2022/12/07 11:24:03;;;;;;;13.35;7.00;;;7.20;99.90;;;;;;5050427;28;20309;-46
2022/12/07 11:26:34;;;;;;;12.48;8.50;;;7.30;99.90;;;;;;5051655;28;20175;-51
2022/12/07 11:29:03;;;;;;;13.13;8.38;;;7.10;99.90;;;;;;5051326;28;20650;-45
2022/12/07 11:31:46;;;;;;;16.02;8.88;;;7.10;99.90;;;;;;5051459;28;20603;-47
2022/12/07 11:34:36;;;;;;;16.65;10.10;;;7.00;99.90;;;;;;5051500;28;20285;-49
2022/12/07 11:37:06;;;;;;;16.42;10.18;;;6.90;99.90;;;;;;5051412;28;20181;-46
2022/12/07 11:39:41;;;;;;;14.63;8.90;;;7.10;99.90;;;;;;5051275;28;20167;-45
2022/12/07 11:42:14;;;;;;;17.52;10.98;;;7.10;99.90;;;;;;5051204;28;20190;-53
2022/12/07 11:45:02;;;;;;;17.65;9.32;;;7.10;99.90;;;;;;5051815;28;20245;-53
2022/12/07 11:47:34;;;;;;;12.98;8.43;;;7.00;99.90;;;;;;5051253;28;20178;-52
2022/12/07 11:50:00;;;;;;;13.15;9.02;;;7.00;99.90;;;;;;5051035;28;20175;-55
2022/12/07 11:52:36;;;;;;;13.45;8.13;;;6.90;99.90;;;;;;5051254;28;20170;-56
2022/12/07 11:55:05;;;;;;;17.65;8.48;;;7.00;99.90;;;;;;5050847;28;20186;-53
2022/12/07 11:57:41;;;;;;;14.80;9.40;;;7.20;99.90;;;;;;5050711;28;20622;-50
2022/12/07 12:00:15;;;;;;;14.18;9.15;;;7.30;99.90;;;;;;5050644;28;20226;-53
2022/12/07 12:02:51;;;;;;;21.42;8.52;;;7.30;99.90;;;;;;5051361;28;20185;-53
2022/12/07 12:05:21;;;;;;;16.52;8.02;;;7.20;99.90;;;;;;5050770;28;20622;-55
2022/12/07 12:07:58;;;;;;;15.52;7.05;;;7.20;99.90;;;;;;5051027;28;20183;-52
2022/12/07 12:10:27;;;;;;;14.60;8.80;;;7.10;99.90;;;;;;5050652;28;20154;-47
2022/12/07 12:12:59;;;;;;;16.83;8.35;;;7.30;99.90;;;;;;5050851;28;20197;-50
2022/12/07 12:15:55;;;;;;;14.15;8.93;;;7.40;99.90;;;;;;5050514;28;20167;-47
2022/12/07 12:18:53;;;;;;;20.02;10.10;;;7.40;99.90;;;;;;5050644;28;20536;-52
2022/12/07 12:21:27;;;;;;;14.98;10.02;;;7.30;99.90;;;;;;5050344;28;20298;-49
2022/12/07 12:24:14;;;;;;;13.05;7.60;;;7.30;99.90;;;;;;5050498;28;20181;-51
2022/12/07 12:26:50;;;;;;;21.33;10.38;;;7.20;99.90;;;;;;5050660;28;20167;-49
2022/12/07 12:29:26;;;;;;;18.73;10.07;;;7.20;99.90;;;;;;5050329;28;20257;-46
2022/12/07 12:32:23;;;;;;;19.83;11.13;;;7.10;99.90;;;;;;5050234;28;20626;-50
2022/12/07 12:35:23;;;;;;;16.23;9.27;;;7.20;99.90;;;;;;5049864;28;20179;-50
2022/12/07 12:37:51;;;;;;;17.83;10.05;;;7.10;99.90;;;;;;5050259;28;20175;-51
2022/12/07 12:40:17;;;;;;;17.80;10.90;;;7.20;99.90;;;;;;5050064;28;20204;-47
2022/12/07 12:42:47;;;;;;;17.95;10.25;;;7.30;99.90;;;;;;5050412;28;20178;-50
2022/12/07 12:45:27;;;;;;;15.95;9.55;;;7.30;99.90;;;;;;5050325;28;20190;-50
2022/12/07 12:47:54;;;;;;;17.15;9.30;;;7.30;99.90;;;;;;5050282;28;20257;-55
2022/12/07 12:50:42;;;;;;;14.32;8.85;;;7.30;99.90;;;;;;5050020;28;20162;-52
2022/12/07 12:53:26;;;;;;;16.52;10.07;;;7.20;99.90;;;;;;5049668;28;20197;-46
2022/12/07 12:56:07;;;;;;;17.33;10.35;;;7.20;99.90;;;;;;5049931;28;20185;-53
2022/12/07 12:58:35;;;;;;;21.27;10.77;;;7.20;99.90;;;;;;5049416;28;20228;-52
2022/12/07 13:01:32;;;;;;;14.88;9.38;;;7.20;99.90;;;;;;5049604;28;20783;-52
2022/12/07 13:03:58;;;;;;;19.98;10.50;;;7.10;99.90;;;;;;5049612;28;20170;-50